Time;durP1;ratioP1;P1;durP2;ratioP2;P2;SDS_P1;SDS_P2;PMS_P1;PMS_P2;Temp;Humidity;BMP_temperature;BMP_pressure;BME280_temperature;BME280_humidity;BME280_pressure;Samples;Min_cycle;Max_cycle;Signal;HPM_P1;HPM_P2
2022/11/15 00:00:47;;;;;;;33.78;22.30;;;7.70;99.90;;;;;;5023350;28;20076;-41
2022/11/15 00:03:15;;;;;;;33.60;21.85;;;7.80;99.90;;;;;;5019000;28;20150;-39
2022/11/15 00:05:42;;;;;;;32.15;21.90;;;7.70;99.90;;;;;;5025728;28;20045;-39
2022/11/15 00:08:09;;;;;;;35.25;23.40;;;7.80;99.90;;;;;;5043278;28;20073;-40
2022/11/15 00:10:35;;;;;;;31.38;21.80;;;7.80;99.90;;;;;;5040525;28;20049;-39
2022/11/15 00:13:05;;;;;;;34.75;22.17;;;7.80;99.90;;;;;;5039357;28;20098;-41
2022/11/15 00:15:32;;;;;;;32.95;22.00;;;7.70;99.90;;;;;;5028651;28;20556;-40
2022/11/15 00:18:00;;;;;;;30.33;21.23;;;7.80;99.90;;;;;;5050604;28;20122;-40
2022/11/15 00:20:27;;;;;;;30.58;20.50;;;7.80;99.90;;;;;;5048784;28;20081;-39
2022/11/15 00:22:54;;;;;;;32.05;21.13;;;7.80;99.90;;;;;;5019220;28;20088;-40
2022/11/15 00:25:21;;;;;;;32.05;20.15;;;7.80;99.90;;;;;;5033456;28;20140;-40
2022/11/15 00:27:47;;;;;;;30.55;20.83;;;7.80;99.90;;;;;;5051621;28;20079;-41
2022/11/15 00:30:14;;;;;;;31.77;21.50;;;7.80;99.90;;;;;;5040282;28;20127;-42
2022/11/15 00:32:41;;;;;;;36.80;24.42;;;7.80;99.90;;;;;;5046239;28;20562;-40
2022/11/15 00:35:09;;;;;;;35.90;24.40;;;7.80;99.90;;;;;;5044656;28;20099;-41
2022/11/15 00:37:36;;;;;;;34.78;23.70;;;7.80;99.90;;;;;;5038809;28;20065;-40
2022/11/15 00:40:03;;;;;;;32.83;22.27;;;7.80;99.90;;;;;;5044971;28;20057;-41
2022/11/15 00:42:30;;;;;;;38.00;23.90;;;7.80;99.90;;;;;;5039032;28;20469;-41
2022/11/15 00:44:57;;;;;;;36.25;24.00;;;7.80;99.90;;;;;;5044237;28;20139;-41
2022/11/15 00:47:23;;;;;;;35.67;23.20;;;7.80;99.90;;;;;;5052794;28;20073;-41
2022/11/15 00:49:50;;;;;;;34.17;22.65;;;7.80;99.90;;;;;;5050593;28;20057;-41
2022/11/15 00:52:18;;;;;;;35.85;23.50;;;7.80;99.90;;;;;;5054015;28;20045;-40
2022/11/15 00:54:45;;;;;;;36.63;22.70;;;7.80;99.90;;;;;;5052574;28;21274;-41
2022/11/15 00:57:12;;;;;;;35.67;23.20;;;7.80;99.90;;;;;;5024111;28;20085;-40
2022/11/15 00:59:39;;;;;;;33.58;22.88;;;7.80;99.90;;;;;;5040131;28;20489;-42
2022/11/15 01:02:05;;;;;;;36.58;22.83;;;7.80;99.90;;;;;;5051290;28;20056;-41
2022/11/15 01:04:32;;;;;;;32.83;22.33;;;7.80;99.90;;;;;;5055441;28;20443;-40
2022/11/15 01:06:59;;;;;;;35.95;22.67;;;7.80;99.90;;;;;;5053830;28;20503;-42
2022/11/15 01:09:27;;;;;;;33.90;22.17;;;7.80;99.90;;;;;;5051929;28;20049;-41
2022/11/15 01:11:54;;;;;;;31.48;21.58;;;7.80;99.90;;;;;;5043831;28;20119;-41
2022/11/15 01:14:21;;;;;;;34.05;21.45;;;7.80;99.90;;;;;;5033422;28;20130;-39
2022/11/15 01:16:47;;;;;;;35.88;22.10;;;7.80;99.90;;;;;;5054421;28;20053;-41
2022/11/15 01:19:14;;;;;;;36.45;21.77;;;7.80;99.90;;;;;;5053953;28;20049;-40
2022/11/15 01:21:41;;;;;;;34.90;21.48;;;7.80;99.90;;;;;;5054413;28;20052;-40
2022/11/15 01:24:08;;;;;;;36.50;21.25;;;7.80;99.90;;;;;;5054856;28;20131;-41
2022/11/15 01:26:37;;;;;;;37.22;21.85;;;7.80;99.90;;;;;;5043040;28;20510;-41
2022/11/15 01:29:03;;;;;;;39.47;22.60;;;7.80;99.90;;;;;;5049129;28;20131;-40
2022/11/15 01:31:30;;;;;;;38.88;22.95;;;7.80;99.90;;;;;;5039151;28;20093;-41
2022/11/15 01:33:57;;;;;;;39.83;23.10;;;7.80;99.90;;;;;;5030343;28;20139;-40
2022/11/15 01:36:24;;;;;;;41.10;24.42;;;7.80;99.90;;;;;;5042716;28;20084;-40
2022/11/15 01:38:54;;;;;;;39.70;23.55;;;7.80;99.90;;;;;;5055082;28;20048;-39
2022/11/15 01:41:21;;;;;;;42.03;22.90;;;7.80;99.90;;;;;;5049362;28;20082;-39
2022/11/15 01:43:50;;;;;;;37.10;23.30;;;7.80;99.90;;;;;;5035464;28;20103;-40
2022/11/15 01:46:27;;;;;;;43.67;24.25;;;7.80;99.90;;;;;;5050283;28;20136;-40
2022/11/15 01:48:55;;;;;;;43.13;23.55;;;7.80;99.90;;;;;;5046929;28;20186;-42
2022/11/15 01:51:23;;;;;;;38.60;23.15;;;7.80;99.90;;;;;;5033886;28;20503;-44
2022/11/15 01:53:50;;;;;;;38.95;23.45;;;7.80;99.90;;;;;;5036973;28;20049;-39
2022/11/15 01:56:20;;;;;;;37.85;23.55;;;7.80;99.90;;;;;;5051628;28;20044;-46
2022/11/15 01:58:47;;;;;;;39.55;24.67;;;7.90;99.90;;;;;;5047896;28;20060;-42
2022/11/15 02:01:15;;;;;;;41.80;23.95;;;7.90;99.90;;;;;;5023283;28;20049;-43
2022/11/15 02:03:44;;;;;;;41.00;23.33;;;7.90;99.90;;;;;;5053244;28;20041;-40
2022/11/15 02:06:11;;;;;;;37.65;22.48;;;7.90;99.90;;;;;;5035324;28;20476;-40
2022/11/15 02:08:38;;;;;;;40.22;24.17;;;7.90;99.90;;;;;;5041384;28;20513;-40
2022/11/15 02:11:05;;;;;;;44.13;25.60;;;7.90;99.90;;;;;;5032313;28;20429;-44
2022/11/15 02:13:32;;;;;;;42.92;23.70;;;7.90;99.90;;;;;;5034944;28;20080;-40
2022/11/15 02:16:01;;;;;;;45.10;24.30;;;7.90;99.90;;;;;;5052771;28;20472;-41
2022/11/15 02:18:32;;;;;;;40.83;22.83;;;7.90;99.90;;;;;;5026965;28;20095;-40
2022/11/15 02:21:07;;;;;;;38.85;23.15;;;7.90;99.90;;;;;;5052592;28;20128;-40
2022/11/15 02:23:59;;;;;;;40.88;22.67;;;7.90;99.90;;;;;;5034411;28;20115;-41
2022/11/15 02:26:59;;;;;;;38.55;22.38;;;7.90;99.90;;;;;;5054186;28;20049;-41
2022/11/15 02:29:30;;;;;;;43.33;22.30;;;8.00;99.90;;;;;;5027173;28;20456;-41
2022/11/15 02:32:00;;;;;;;;;;;8.00;99.90;;;;;;5034984;28;20085;-41
2022/11/15 02:34:29;;;;;;;43.45;22.35;;;8.00;99.90;;;;;;5038379;28;19929;-41
2022/11/15 02:37:00;;;;;;;43.83;22.90;;;8.00;99.90;;;;;;5038051;28;20464;-38
2022/11/15 02:39:29;;;;;;;39.72;22.55;;;8.00;99.90;;;;;;5041702;28;20080;-43
2022/11/15 02:41:58;;;;;;;39.63;21.67;;;8.00;99.90;;;;;;5033720;28;20056;-41
2022/11/15 02:44:25;;;;;;;41.97;22.63;;;8.00;99.90;;;;;;5033399;28;20092;-42
2022/11/15 02:49:38;;;;;;;46.50;23.27;;;8.00;99.90;;;;;;5034802;28;20053;-41
2022/11/15 02:52:05;;;;;;;44.00;23.58;;;8.10;99.90;;;;;;5045553;28;20053;-42
2022/11/15 02:54:33;;;;;;;46.60;23.27;;;8.10;99.90;;;;;;5034225;28;20551;-40
2022/11/15 02:57:01;;;;;;;48.03;23.88;;;8.10;99.90;;;;;;5044210;28;20122;-42
2022/11/15 02:59:58;;;;;;;49.75;24.10;;;8.10;99.90;;;;;;5040104;28;20081;-40
2022/11/15 03:02:33;;;;;;;50.67;24.38;;;8.10;99.90;;;;;;5025313;28;20126;-40
2022/11/15 03:05:03;;;;;;;49.63;25.13;;;8.20;99.90;;;;;;5052190;28;20096;-41
2022/11/15 03:07:31;;;;;;;54.30;25.10;;;8.20;99.90;;;;;;5029096;28;20053;-41
2022/11/15 03:10:01;;;;;;;54.03;24.90;;;8.20;99.90;;;;;;5029965;28;20057;-41
2022/11/15 03:12:29;;;;;;;57.33;25.52;;;8.20;99.90;;;;;;5051026;28;20073;-40
2022/11/15 03:14:57;;;;;;;57.25;26.23;;;8.20;99.90;;;;;;5046681;28;20049;-39
2022/11/15 03:17:25;;;;;;;56.42;27.20;;;8.20;99.90;;;;;;5043526;28;20057;-41
2022/11/15 03:19:52;;;;;;;57.90;26.27;;;8.20;99.90;;;;;;5046170;28;20049;-40
2022/11/15 03:22:22;;;;;;;57.85;25.73;;;8.20;99.90;;;;;;5051379;28;20076;-40
2022/11/15 03:24:53;;;;;;;59.47;26.65;;;8.20;99.90;;;;;;5051150;28;20045;-41
2022/11/15 03:27:22;;;;;;;57.55;26.80;;;8.20;99.90;;;;;;5052566;28;20064;-40
2022/11/15 03:29:51;;;;;;;64.03;27.63;;;8.30;99.90;;;;;;5051900;28;20262;-40
2022/11/15 03:32:19;;;;;;;63.30;28.85;;;8.30;99.90;;;;;;5047241;28;20128;-42
2022/11/15 03:34:48;;;;;;;58.30;27.45;;;8.30;99.90;;;;;;5028766;28;20106;-41
2022/11/15 03:37:15;;;;;;;66.80;29.38;;;8.30;99.90;;;;;;5046438;28;21585;-40
2022/11/15 03:39:43;;;;;;;66.10;28.63;;;8.30;99.90;;;;;;5052398;28;20052;-40
2022/11/15 03:42:17;;;;;;;65.25;29.55;;;8.40;99.90;;;;;;5050004;28;20382;-42
2022/11/15 03:44:47;;;;;;;62.88;28.27;;;8.30;99.90;;;;;;5050879;28;20088;-43
2022/11/15 03:47:16;;;;;;;64.55;28.88;;;8.40;99.90;;;;;;5050269;28;20052;-43
2022/11/15 03:49:45;;;;;;;67.07;29.80;;;8.40;99.90;;;;;;5051800;28;20190;-45
2022/11/15 03:52:12;;;;;;;65.38;30.13;;;8.40;99.90;;;;;;5032839;28;20570;-49
2022/11/15 03:54:50;;;;;;;64.82;29.98;;;8.50;99.90;;;;;;5046997;28;20492;-44
2022/11/15 03:57:17;;;;;;;77.38;31.15;;;8.50;99.90;;;;;;5043700;28;20056;-46
2022/11/15 03:59:43;;;;;;;70.95;31.23;;;8.40;99.90;;;;;;5032636;28;20488;-46
2022/11/15 04:02:10;;;;;;;64.75;29.90;;;8.50;99.90;;;;;;5044712;28;20057;-44
2022/11/15 04:04:37;;;;;;;82.15;33.15;;;8.50;99.90;;;;;;5050814;28;20045;-46
2022/11/15 04:07:04;;;;;;;74.07;34.50;;;8.50;99.90;;;;;;5042835;28;20160;-44
2022/11/15 04:09:30;;;;;;;79.97;34.10;;;8.50;99.90;;;;;;5040377;28;20485;-45
2022/11/15 04:11:59;;;;;;;85.22;34.90;;;8.60;99.90;;;;;;5052100;28;20129;-45
2022/11/15 04:14:25;;;;;;;79.18;35.95;;;8.60;99.90;;;;;;5047849;28;20091;-42
2022/11/15 04:16:52;;;;;;;85.25;35.22;;;8.60;99.90;;;;;;5051272;28;20049;-44
2022/11/15 04:24:48;;;;;;;92.47;37.70;;;8.60;99.90;;;;;;5031614;28;20057;-44
2022/11/15 04:27:16;;;;;;;86.07;35.03;;;8.60;99.90;;;;;;5030951;28;20049;-42
2022/11/15 04:29:42;;;;;;;89.57;36.35;;;8.70;99.90;;;;;;5020972;28;20077;-42
2022/11/15 04:32:09;;;;;;;85.63;37.78;;;8.70;99.90;;;;;;5031000;28;20143;-42
2022/11/15 04:34:38;;;;;;;106.30;38.70;;;8.70;99.90;;;;;;5047831;28;20053;-43
2022/11/15 04:37:14;;;;;;;89.75;37.38;;;8.70;99.90;;;;;;5052091;28;20504;-44
2022/11/15 04:39:41;;;;;;;90.28;37.78;;;8.80;99.90;;;;;;5051529;28;20420;-41
2022/11/15 04:42:08;;;;;;;95.70;37.22;;;8.80;99.90;;;;;;5047249;28;20080;-43
2022/11/15 04:44:36;;;;;;;94.07;37.90;;;8.80;99.90;;;;;;5026363;28;20099;-42
2022/11/15 04:47:03;;;;;;;94.00;38.80;;;8.80;99.90;;;;;;5042133;28;20128;-44
2022/11/15 04:49:30;;;;;;;94.57;39.30;;;8.80;99.90;;;;;;5051035;28;20057;-43
2022/11/15 04:51:57;;;;;;;98.93;39.47;;;8.90;99.90;;;;;;5042911;28;20085;-40
2022/11/15 04:54:23;;;;;;;93.45;37.90;;;8.90;99.90;;;;;;5043498;28;20141;-40
2022/11/15 04:56:50;;;;;;;96.78;37.90;;;8.90;99.90;;;;;;5023093;28;20581;-41
2022/11/15 04:59:17;;;;;;;94.88;40.17;;;8.90;99.90;;;;;;5020184;28;20551;-43
2022/11/15 05:01:45;;;;;;;95.65;38.33;;;8.90;99.90;;;;;;5046830;28;20084;-43
2022/11/15 05:04:20;;;;;;;97.97;39.78;;;9.00;99.90;;;;;;5047398;28;20099;-42
2022/11/15 05:06:48;;;;;;;96.47;39.28;;;9.00;99.90;;;;;;5032864;28;20057;-44
2022/11/15 05:09:14;;;;;;;93.50;39.72;;;9.00;99.90;;;;;;5018888;28;20141;-43
2022/11/15 05:11:41;;;;;;;98.68;40.40;;;9.10;99.90;;;;;;5049960;28;20374;-44
2022/11/15 05:14:08;;;;;;;94.28;38.13;;;9.10;99.90;;;;;;5032453;28;20053;-43
2022/11/15 05:16:35;;;;;;;87.30;38.75;;;9.10;99.90;;;;;;5048461;28;20088;-44
2022/11/15 05:19:03;;;;;;;91.03;38.63;;;9.20;99.90;;;;;;5024769;28;20451;-43
2022/11/15 05:21:30;;;;;;;89.32;41.47;;;9.20;99.90;;;;;;5042143;28;20084;-43
2022/11/15 05:23:56;;;;;;;88.90;39.47;;;9.20;99.90;;;;;;5023581;28;20057;-40
2022/11/15 05:26:23;;;;;;;83.18;38.40;;;9.30;99.90;;;;;;5045880;28;20073;-42
2022/11/15 05:28:53;;;;;;;96.28;41.25;;;9.30;99.90;;;;;;5049501;28;20053;-43
2022/11/15 05:31:20;;;;;;;94.97;41.05;;;9.30;99.90;;;;;;5038933;28;20057;-43
2022/11/15 05:33:47;;;;;;;81.85;39.40;;;9.40;99.90;;;;;;5024566;28;20500;-43
2022/11/15 05:36:18;;;;;;;80.55;37.50;;;9.40;99.90;;;;;;5050255;28;20081;-44
2022/11/15 05:38:45;;;;;;;75.60;39.67;;;9.40;99.90;;;;;;5034956;28;20485;-42
2022/11/15 05:41:12;;;;;;;71.60;36.92;;;9.50;99.90;;;;;;5045590;28;20445;-43
2022/11/15 05:43:38;;;;;;;67.68;36.13;;;9.50;99.90;;;;;;5029327;28;20103;-44
2022/11/15 05:46:05;;;;;;;81.63;38.42;;;9.50;99.90;;;;;;5033134;28;20057;-43
2022/11/15 05:48:32;;;;;;;69.72;35.58;;;9.50;99.90;;;;;;5019549;28;20076;-42
2022/11/15 05:50:59;;;;;;;70.97;37.22;;;9.60;99.90;;;;;;5051274;28;20085;-42
2022/11/15 05:53:27;;;;;;;70.80;36.90;;;9.60;99.90;;;;;;5053812;28;20096;-43
2022/11/15 05:55:54;;;;;;;75.85;37.17;;;9.60;99.90;;;;;;5054147;28;20118;-42
2022/11/15 05:58:21;;;;;;;69.28;36.17;;;9.60;99.90;;;;;;5052240;28;21218;-43
2022/11/15 06:00:48;;;;;;;76.72;36.90;;;9.70;99.90;;;;;;5045185;28;20136;-43
2022/11/15 06:03:14;;;;;;;70.53;35.92;;;9.70;99.90;;;;;;5034243;28;20076;-42
2022/11/15 06:05:41;;;;;;;71.50;35.65;;;9.70;99.90;;;;;;5027417;28;20082;-41
2022/11/15 06:08:11;;;;;;;74.18;37.00;;;9.80;99.90;;;;;;5030752;28;20088;-42
2022/11/15 06:10:39;;;;;;;72.80;35.97;;;9.80;99.90;;;;;;5052081;28;20110;-42
2022/11/15 06:13:06;;;;;;;73.05;35.58;;;9.80;99.90;;;;;;5036644;28;20132;-42
2022/11/15 06:15:33;;;;;;;74.60;36.17;;;9.80;99.90;;;;;;5028414;28;20759;-40
2022/11/15 06:18:00;;;;;;;80.88;38.78;;;9.90;99.90;;;;;;5019751;28;20053;-38
2022/11/15 06:20:27;;;;;;;74.82;36.58;;;9.90;99.90;;;;;;5041944;28;20045;-41
2022/11/15 06:22:57;;;;;;;70.15;35.70;;;9.90;99.90;;;;;;5023923;28;20100;-43
2022/11/15 06:25:24;;;;;;;72.03;34.95;;;10.00;99.90;;;;;;5048967;28;20065;-43
2022/11/15 06:27:53;;;;;;;69.25;35.75;;;10.00;99.90;;;;;;5020293;28;20540;-42
2022/11/15 06:30:20;;;;;;;74.47;35.15;;;10.00;99.90;;;;;;5046892;28;20447;-46
2022/11/15 06:32:47;;;;;;;70.55;35.60;;;10.00;99.90;;;;;;5044869;28;20084;-42
2022/11/15 06:35:14;;;;;;;71.72;34.67;;;10.10;99.90;;;;;;5030440;28;20132;-43
2022/11/15 06:37:41;;;;;;;77.70;36.22;;;10.10;99.90;;;;;;5017294;28;20049;-40
2022/11/15 06:40:09;;;;;;;70.95;34.33;;;10.10;99.90;;;;;;5045931;28;20060;-43
2022/11/15 06:42:36;;;;;;;63.13;33.15;;;10.20;99.90;;;;;;5036916;28;20057;-43
2022/11/15 06:45:04;;;;;;;67.22;34.42;;;10.20;99.90;;;;;;5048084;28;20145;-42
2022/11/15 06:47:31;;;;;;;63.83;33.72;;;10.20;99.90;;;;;;5022792;28;20143;-43
2022/11/15 06:50:01;;;;;;;74.05;32.85;;;10.30;99.90;;;;;;5028816;28;20550;-40
2022/11/15 06:52:32;;;;;;;59.45;32.17;;;10.30;99.90;;;;;;5049244;28;20103;-40
2022/11/15 06:54:59;;;;;;;63.83;32.17;;;10.30;99.90;;;;;;5035276;28;20452;-42
2022/11/15 06:57:25;;;;;;;65.97;33.63;;;10.40;99.90;;;;;;5033101;28;20534;-42
2022/11/15 06:59:52;;;;;;;58.25;32.42;;;10.30;99.90;;;;;;5032876;28;20118;-43
2022/11/15 07:02:21;;;;;;;58.33;31.80;;;10.30;99.90;;;;;;5044619;28;20081;-42
2022/11/15 07:04:48;;;;;;;59.38;30.77;;;10.40;99.90;;;;;;5028883;28;20084;-44
2022/11/15 07:07:14;;;;;;;63.60;31.55;;;10.40;99.90;;;;;;5010593;28;20139;-40
2022/11/15 07:09:41;;;;;;;54.67;31.25;;;10.40;99.90;;;;;;5006909;28;20092;-42
2022/11/15 07:12:08;;;;;;;55.35;31.02;;;10.40;99.90;;;;;;5028535;28;20140;-40
2022/11/15 07:14:35;;;;;;;53.53;30.50;;;10.40;99.90;;;;;;5027519;28;20100;-41
2022/11/15 07:17:04;;;;;;;56.92;30.98;;;10.50;99.90;;;;;;5014067;28;20053;-42
2022/11/15 07:19:32;;;;;;;65.40;31.25;;;10.50;99.90;;;;;;4996767;28;20057;-42
2022/11/15 07:21:59;;;;;;;53.22;30.40;;;10.50;99.90;;;;;;5014500;28;20045;-43
2022/11/15 07:24:26;;;;;;;59.95;31.52;;;10.50;99.90;;;;;;5001938;28;20092;-43
2022/11/15 07:26:52;;;;;;;56.83;30.73;;;10.50;99.90;;;;;;5015295;28;20502;-40
2022/11/15 07:29:19;;;;;;;57.53;30.77;;;10.60;99.90;;;;;;5014951;28;20127;-41
2022/11/15 07:31:46;;;;;;;66.05;29.60;;;10.60;99.90;;;;;;5032286;28;20529;-41
2022/11/15 07:34:13;;;;;;;51.42;29.73;;;10.60;99.90;;;;;;5015295;28;20058;-39
2022/11/15 07:36:41;;;;;;;52.30;28.67;;;10.60;99.90;;;;;;5009206;28;20092;-43
2022/11/15 07:39:08;;;;;;;51.55;29.48;;;10.70;99.90;;;;;;5033011;28;20088;-43
2022/11/15 07:41:34;;;;;;;50.30;28.45;;;10.70;99.90;;;;;;5023802;28;20104;-42
2022/11/15 07:44:01;;;;;;;49.67;28.27;;;10.80;99.90;;;;;;5033038;28;20536;-42
2022/11/15 07:46:28;;;;;;;48.97;27.50;;;10.70;99.90;;;;;;5030809;28;20140;-40
2022/11/15 07:48:55;;;;;;;46.03;26.98;;;10.80;99.90;;;;;;5034808;28;20440;-42
2022/11/15 07:51:21;;;;;;;48.13;29.17;;;10.80;99.90;;;;;;5006752;28;20460;-39
2022/11/15 07:53:50;;;;;;;44.40;27.52;;;10.80;99.90;;;;;;5011662;28;20077;-42
2022/11/15 07:56:16;;;;;;;45.17;27.90;;;10.80;99.90;;;;;;5030989;28;20493;-38
2022/11/15 07:58:43;;;;;;;47.50;28.30;;;10.80;99.90;;;;;;5042441;28;20113;-42
2022/11/15 08:01:10;;;;;;;45.42;28.08;;;10.90;99.90;;;;;;5036144;28;20056;-42
2022/11/15 08:03:37;;;;;;;44.85;27.17;;;10.90;99.90;;;;;;5032883;28;20132;-41
2022/11/15 08:06:04;;;;;;;43.88;27.10;;;10.90;99.90;;;;;;5040762;28;20044;-42
2022/11/15 08:08:31;;;;;;;38.88;26.02;;;10.90;99.90;;;;;;5045074;28;20473;-40
2022/11/15 08:10:59;;;;;;;40.83;24.77;;;10.90;99.90;;;;;;5017096;28;20085;-40
2022/11/15 08:13:26;;;;;;;39.90;26.63;;;10.90;99.90;;;;;;5036797;28;20501;-41
2022/11/15 08:15:53;;;;;;;44.20;26.05;;;11.00;99.90;;;;;;5052403;28;20503;-41
2022/11/15 08:18:20;;;;;;;39.40;25.58;;;11.00;99.90;;;;;;5051481;28;20087;-41
2022/11/15 08:20:46;;;;;;;42.97;25.73;;;11.00;99.90;;;;;;5033936;28;20054;-40
2022/11/15 08:23:13;;;;;;;44.17;24.88;;;11.00;99.90;;;;;;5031825;28;20143;-41
2022/11/15 08:25:40;;;;;;;41.40;26.45;;;11.00;99.90;;;;;;5015191;28;20057;-41
2022/11/15 08:28:09;;;;;;;37.88;25.20;;;11.10;99.90;;;;;;5038363;28;20489;-41
2022/11/15 08:30:37;;;;;;;37.75;24.83;;;11.10;99.90;;;;;;5051363;28;20053;-41
2022/11/15 08:33:03;;;;;;;38.28;24.92;;;11.10;99.90;;;;;;5034984;28;20049;-42
2022/11/15 08:35:30;;;;;;;45.30;24.75;;;11.10;99.90;;;;;;5052301;28;20408;-42
2022/11/15 08:37:57;;;;;;;38.88;24.70;;;11.20;99.90;;;;;;5051039;28;20052;-41
2022/11/15 08:40:24;;;;;;;47.72;26.20;;;11.20;99.90;;;;;;5052474;28;20045;-43
2022/11/15 08:42:50;;;;;;;39.42;25.27;;;11.20;99.90;;;;;;5052440;28;20093;-42
2022/11/15 08:45:19;;;;;;;40.80;24.90;;;11.20;99.90;;;;;;5034746;28;20080;-42
2022/11/15 08:47:45;;;;;;;42.55;25.38;;;11.20;99.90;;;;;;5034789;28;20053;-43
2022/11/15 08:50:12;;;;;;;38.63;25.65;;;11.30;99.90;;;;;;5034622;28;20053;-41
2022/11/15 08:52:39;;;;;;;36.25;25.60;;;11.30;99.90;;;;;;5051329;28;20067;-42
2022/11/15 08:55:07;;;;;;;36.25;24.45;;;11.30;99.90;;;;;;5052446;28;20498;-40
2022/11/15 08:57:34;;;;;;;43.70;25.48;;;11.30;99.90;;;;;;5051425;28;20088;-41
2022/11/15 09:00:00;;;;;;;37.50;24.25;;;11.40;99.90;;;;;;5034456;28;20089;-42
2022/11/15 09:02:28;;;;;;;38.70;24.85;;;11.40;99.90;;;;;;5045887;28;20041;-40
2022/11/15 09:04:55;;;;;;;38.88;24.90;;;11.40;99.90;;;;;;5015354;28;20057;-41
2022/11/15 09:07:22;;;;;;;35.75;24.30;;;11.40;99.90;;;;;;5021681;28;20128;-42
2022/11/15 09:09:49;;;;;;;36.60;24.08;;;11.40;99.90;;;;;;5054280;28;20048;-40
2022/11/15 09:12:16;;;;;;;40.13;24.35;;;11.40;99.90;;;;;;5041398;28;20124;-41
2022/11/15 09:14:42;;;;;;;39.35;24.50;;;11.50;99.90;;;;;;5026115;28;20132;-41
2022/11/15 09:17:09;;;;;;;41.25;24.45;;;11.50;99.90;;;;;;5052831;28;20049;-40
2022/11/15 09:19:37;;;;;;;42.33;24.38;;;11.50;99.90;;;;;;5053580;28;20577;-40
2022/11/15 09:22:06;;;;;;;36.33;23.92;;;11.50;99.90;;;;;;5054504;28;20484;-42
2022/11/15 09:24:33;;;;;;;37.35;23.75;;;11.60;99.90;;;;;;5036367;28;20139;-41
2022/11/15 09:27:00;;;;;;;35.55;23.48;;;11.60;99.90;;;;;;5036451;28;20135;-41
2022/11/15 09:29:27;;;;;;;37.83;24.20;;;11.60;99.90;;;;;;5052917;28;20535;-40
2022/11/15 09:31:53;;;;;;;36.10;23.27;;;11.60;99.90;;;;;;5054087;28;20135;-40
2022/11/15 09:34:20;;;;;;;35.50;23.40;;;11.60;99.90;;;;;;5044312;28;20045;-39
2022/11/15 09:36:48;;;;;;;33.70;23.90;;;11.70;99.90;;;;;;5042534;28;20049;-41
2022/11/15 09:39:15;;;;;;;38.55;23.40;;;11.70;99.90;;;;;;5066797;28;20052;-40
2022/11/15 09:42:10;;;;;;;36.13;22.05;;;11.70;99.90;;;;;;5059626;28;20076;-41
2022/11/15 09:44:45;;;;;;;35.65;22.40;;;11.70;99.90;;;;;;5033087;28;20065;-37
2022/11/15 09:47:42;;;;;;;33.50;21.85;;;11.80;99.90;;;;;;5034164;28;20049;-42
2022/11/15 09:50:10;;;;;;;33.25;22.90;;;11.80;99.90;;;;;;4987334;28;20046;-40
2022/11/15 09:52:40;;;;;;;31.15;21.83;;;11.90;99.90;;;;;;5016888;28;20156;-42
2022/11/15 09:55:09;;;;;;;32.60;22.17;;;11.90;99.90;;;;;;5041024;28;20116;-42
2022/11/15 09:57:39;;;;;;;31.88;21.40;;;11.90;99.90;;;;;;5052614;28;20068;-42
2022/11/15 10:00:11;;;;;;;30.80;22.13;;;11.90;99.90;;;;;;5048216;28;20102;-43
2022/11/15 10:02:44;;;;;;;;;;;11.90;99.90;;;;;;5056727;28;20084;-41
2022/11/15 10:05:12;;;;;;;38.00;21.20;;;11.90;99.90;;;;;;5056177;28;20015;-40
2022/11/15 10:07:45;;;;;;;30.88;20.92;;;11.90;99.90;;;;;;5073965;28;20056;-40
2022/11/15 10:10:16;;;;;;;32.55;20.10;;;11.90;99.90;;;;;;5042260;28;20111;-40
2022/11/15 10:12:44;;;;;;;28.67;20.38;;;12.00;99.90;;;;;;5051325;28;20048;-40
2022/11/15 10:15:13;;;;;;;27.27;19.27;;;12.00;99.90;;;;;;5045613;28;20131;-43
2022/11/15 10:18:15;;;;;;;29.25;19.20;;;12.00;99.90;;;;;;5033748;28;20519;-40
2022/11/15 10:20:48;;;;;;;30.35;19.58;;;12.00;99.90;;;;;;4963126;28;20062;-41
2022/11/15 10:23:17;;;;;;;26.25;17.95;;;12.10;99.90;;;;;;5020214;28;20100;-36
2022/11/15 10:25:44;;;;;;;27.40;17.48;;;12.10;99.90;;;;;;5033397;28;20093;-43
2022/11/15 10:28:14;;;;;;;24.70;17.63;;;12.10;99.90;;;;;;5016134;28;20064;-42
2022/11/15 10:30:42;;;;;;;24.75;17.35;;;12.20;99.90;;;;;;5017977;28;20166;-42
2022/11/15 10:33:21;;;;;;;21.67;15.88;;;12.20;99.90;;;;;;5052659;28;20081;-41
2022/11/15 10:35:48;;;;;;;25.88;16.55;;;12.30;99.90;;;;;;5053200;28;20060;-40
2022/11/15 10:38:16;;;;;;;22.27;15.48;;;12.30;99.90;;;;;;5035832;28;20088;-43
2022/11/15 10:40:44;;;;;;;20.73;14.07;;;12.30;99.90;;;;;;5053527;28;20106;-40
2022/11/15 10:43:16;;;;;;;18.85;14.98;;;12.40;99.90;;;;;;5053097;28;20053;-41
2022/11/15 10:45:43;;;;;;;19.90;14.23;;;12.40;99.90;;;;;;5051575;28;20087;-39
2022/11/15 10:48:28;;;;;;;18.10;13.90;;;12.40;99.90;;;;;;5053074;28;20115;-42
2022/11/15 10:50:55;;;;;;;24.48;15.20;;;12.40;99.90;;;;;;5039377;28;20077;-42
2022/11/15 10:53:27;;;;;;;17.17;12.93;;;12.50;99.90;;;;;;5014758;28;20474;-40
2022/11/15 10:55:54;;;;;;;14.20;9.88;;;12.60;99.90;;;;;;5033392;28;20498;-42
2022/11/15 10:58:24;;;;;;;13.68;10.38;;;12.70;99.90;;;;;;5050385;28;20091;-38
2022/11/15 11:00:53;;;;;;;13.82;8.20;;;12.80;99.90;;;;;;5034788;28;20045;-40
2022/11/15 11:03:29;;;;;;;11.10;7.32;;;13.00;99.90;;;;;;5033540;28;20243;-39
2022/11/15 11:06:05;;;;;;;14.52;7.85;;;13.20;99.90;;;;;;5053142;28;20131;-41
2022/11/15 11:08:33;;;;;;;10.32;6.60;;;13.30;99.90;;;;;;5034986;28;20049;-39
2022/11/15 11:11:01;;;;;;;10.30;5.43;;;13.50;99.90;;;;;;5034893;28;20108;-41
2022/11/15 11:13:29;;;;;;;6.97;5.00;;;13.60;99.90;;;;;;5034248;28;20460;-41
2022/11/15 11:15:57;;;;;;;8.75;4.35;;;13.60;99.90;;;;;;5052030;28;20095;-41
2022/11/15 11:18:28;;;;;;;11.20;3.88;;;13.50;99.90;;;;;;5052897;28;20071;-41
2022/11/15 11:20:57;;;;;;;10.82;4.40;;;13.50;99.90;;;;;;5021597;28;20140;-41
2022/11/15 11:23:39;;;;;;;9.40;4.30;;;13.40;99.90;;;;;;5051438;28;20133;-42
2022/11/15 11:26:13;;;;;;;9.07;3.90;;;13.30;99.90;;;;;;5052872;28;20165;-41
2022/11/15 11:28:42;;;;;;;9.15;4.03;;;13.20;99.90;;;;;;5070090;28;20443;-42
2022/11/15 11:31:19;;;;;;;7.78;3.72;;;13.20;99.90;;;;;;5048078;28;20063;-43
2022/11/15 11:33:48;;;;;;;6.57;3.50;;;13.20;99.90;;;;;;5049741;28;20122;-41
2022/11/15 11:36:21;;;;;;;7.97;3.70;;;13.20;99.90;;;;;;5022185;28;20123;-40
2022/11/15 11:38:59;;;;;;;8.48;4.30;;;13.10;99.90;;;;;;5042753;28;20099;-41
2022/11/15 11:41:40;;;;;;;7.63;3.88;;;13.10;99.90;;;;;;5053074;28;20136;-42
2022/11/15 11:44:16;;;;;;;10.38;3.85;;;13.00;99.90;;;;;;5053153;28;20474;-42
2022/11/15 11:46:49;;;;;;;8.10;2.72;;;12.90;99.90;;;;;;5055046;28;20412;-40
2022/11/15 11:49:17;;;;;;;10.85;3.47;;;12.90;99.90;;;;;;5035284;28;20447;-42
2022/11/15 11:51:48;;;;;;;7.72;3.60;;;12.80;99.90;;;;;;5042062;28;20089;-39
2022/11/15 11:54:26;;;;;;;11.50;4.15;;;12.80;99.90;;;;;;5013780;28;20053;-40
2022/11/15 11:56:53;;;;;;;9.23;4.07;;;12.70;99.90;;;;;;5033853;28;20125;-41
2022/11/15 11:59:24;;;;;;;9.52;4.18;;;12.70;99.90;;;;;;5032905;28;20140;-39
2022/11/15 12:01:51;;;;;;;12.43;4.22;;;12.70;99.90;;;;;;5023023;28;20456;-40
2022/11/15 12:04:20;;;;;;;6.80;4.07;;;12.70;99.90;;;;;;5032096;28;20085;-39
2022/11/15 12:06:49;;;;;;;6.90;4.50;;;12.70;99.90;;;;;;5037712;28;20098;-40
2022/11/15 12:09:20;;;;;;;8.00;4.53;;;12.80;99.90;;;;;;5049523;28;20084;-39
2022/11/15 12:11:51;;;;;;;7.43;4.87;;;12.80;99.90;;;;;;5051897;28;20048;-39
2022/11/15 12:14:25;;;;;;;9.05;4.40;;;12.80;99.90;;;;;;5060345;28;20308;-40
2022/11/15 12:16:52;;;;;;;8.30;4.47;;;12.80;99.90;;;;;;5026418;28;20131;-41
2022/11/15 12:19:18;;;;;;;9.32;5.00;;;12.90;99.90;;;;;;5050899;28;20481;-41
2022/11/15 12:21:48;;;;;;;8.85;4.57;;;13.00;99.90;;;;;;5051153;28;20084;-39
2022/11/15 12:24:16;;;;;;;8.77;4.60;;;13.10;99.90;;;;;;5036624;28;20076;-40
2022/11/15 12:26:48;;;;;;;11.43;4.50;;;13.10;99.90;;;;;;5013997;28;20531;-39
2022/11/15 12:29:17;;;;;;;8.23;4.18;;;13.20;99.90;;;;;;5033485;28;20092;-39
2022/11/15 12:31:45;;;;;;;11.30;3.85;;;13.30;99.90;;;;;;5025741;28;20059;-39
2022/11/15 12:34:30;;;;;;;7.97;3.83;;;13.30;99.90;;;;;;5071398;28;20098;-39
2022/11/15 12:36:57;;;;;;;9.68;3.40;;;13.40;99.90;;;;;;5053228;28;20084;-41
2022/11/15 12:40:18;;;;;;;10.18;3.60;;;13.50;99.90;;;;;;5071553;28;20084;-40
2022/11/15 12:42:59;;;;;;;9.55;3.38;;;13.60;99.90;;;;;;5058023;28;20496;-41
2022/11/15 12:45:27;;;;;;;7.40;3.53;;;13.60;99.90;;;;;;5060484;28;20041;-40
2022/11/15 12:47:54;;;;;;;6.40;3.25;;;13.50;99.90;;;;;;5046564;28;20132;-40
2022/11/15 12:50:54;;;;;;;10.88;3.47;;;13.50;99.90;;;;;;5068756;28;20088;-39
2022/11/15 12:53:30;;;;;;;9.27;3.75;;;13.50;99.90;;;;;;5039720;28;20041;-42